WNA Airport (Napakiak) Information

FAA: WNA - ICAO: PANA

WNA Airport Location

State Alaska
County Bethel
City Napakiak
WNA Airport is 0 miles west of Napakiak, AK.
Latitude 60-41-25.2000N
Longitude 161-58-42.6000W
Elevation 16ft

PANA Airport METARs

METAR PANA 181256Z AUTO 06007KT 10SM OVC120 M15/M16 A2993 RMK AO2 SLP134 T11501161 FZRANO TSNO
Altimeter 29.93"
Temperature -15.0°C (5.0°F)
Wind 60° at 7KT
Clouds overcast at 12,000ft
Visibility 10.0mi
Time observed: 2022-01-18T12:56:00Z

WNA Airport Details

Status Operational
Activation September 1976
Ownership Public
Usage Public
Chart BETHEL
ATC on-site No
Beacon schedule N/A
Beacon color clear green

WNA Airport Contacts

Owner ALASKA DOT&PF CENTRAL REGION
Owner address PO BOX 196900, ANCHORAGE, AK 99519-6900
Owner phone 907-266-1735
Manager N/A
Manager address N/A, N/A
Manager phone N/A

WNA Airport (Napakiak) Radio Frequencies

WNA (Airport) Radio Frequencies

UNICOM N/A
Common traffic advisory frequency (CTAF) 122.9